Time;durP1;ratioP1;P1;durP2;ratioP2;P2;SDS_P1;SDS_P2;PMS_P1;PMS_P2;Temp;Humidity;BMP_temperature;BMP_pressure;BME280_temperature;BME280_humidity;BME280_pressure;Samples;Min_cycle;Max_cycle;Signal;HPM_P1;HPM_P2
2022/08/27 00:00:29;;;;;;;7.60;3.42;;;;;;;18.77;65.09;63944.06;4909076;29;20286;-77
2022/08/27 00:02:56;;;;;;;8.07;2.70;;;;;;;18.70;66.09;63936.75;4911042;29;20208;-77
2022/08/27 00:05:24;;;;;;;3.88;3.15;;;;;;;18.71;66.70;63934.69;4910725;29;20497;-78
2022/08/27 00:07:52;;;;;;;5.60;2.92;;;;;;;18.74;67.08;63940.41;4910580;29;20430;-77
2022/08/27 00:10:21;;;;;;;7.38;3.10;;;;;;;18.68;66.17;63934.69;4910521;29;20206;-77
2022/08/27 00:12:49;;;;;;;6.43;2.30;;;;;;;18.73;65.42;63939.38;4910048;29;20202;-77
2022/08/27 00:15:16;;;;;;;7.45;2.63;;;;;;;18.81;64.95;63945.13;4910607;29;20206;-77
2022/08/27 00:17:45;;;;;;;6.07;2.55;;;;;;;18.78;65.36;63945.09;4909806;29;20230;-77
2022/08/27 00:20:13;;;;;;;4.20;3.17;;;;;;;18.87;64.77;63957.06;4910617;29;20198;-77
2022/08/27 00:22:41;;;;;;;8.30;2.80;;;;;;;18.94;64.73;63961.78;4909140;29;20266;-77
2022/08/27 00:25:10;;;;;;;12.02;2.95;;;;;;;18.93;65.01;63960.22;4910993;29;20432;-78
2022/08/27 00:27:37;;;;;;;4.68;2.70;;;;;;;18.85;65.68;63951.88;4909255;29;20222;-77
2022/08/27 00:30:08;;;;;;;4.15;2.83;;;;;;;18.78;66.59;63942.00;4911381;29;20202;-77
2022/08/27 00:32:35;;;;;;;4.03;2.75;;;;;;;18.73;67.31;63937.31;4909843;29;20573;-78
2022/08/27 00:35:02;;;;;;;5.85;2.60;;;;;;;18.66;67.09;63929.47;4911412;29;20210;-77
2022/08/27 00:37:29;;;;;;;7.30;2.70;;;;;;;18.61;68.23;63924.81;4909662;29;20226;-77
2022/08/27 00:39:56;;;;;;;4.53;3.13;;;;;;;18.59;68.16;63925.28;4910932;29;20194;-76
2022/08/27 00:42:25;;;;;;;2.50;2.22;;;;;;;18.53;67.79;63921.09;4914167;29;20319;-77
2022/08/27 00:44:52;;;;;;;8.10;3.35;;;;;;;18.51;68.73;63913.84;4914026;29;20202;-77
2022/08/27 00:47:24;;;;;;;8.23;2.72;;;;;;;18.59;69.09;63922.72;4914509;29;20222;-76
2022/08/27 00:49:55;;;;;;;5.82;3.05;;;;;;;18.61;69.47;63929.97;4914205;29;20491;-78
2022/08/27 00:52:27;;;;;;;6.88;2.95;;;;;;;18.60;70.61;63923.78;4913275;29;20229;-78
2022/08/27 00:55:00;;;;;;;4.95;3.42;;;;;;;18.57;70.65;63920.63;4913416;29;20198;-77
2022/08/27 00:57:29;;;;;;;3.08;2.78;;;;;;;18.54;70.59;63919.56;4913353;29;20222;-77
2022/08/27 00:59:56;;;;;;;5.38;2.90;;;;;;;18.49;70.20;63912.28;4915964;29;20210;-77
2022/08/27 01:02:28;;;;;;;5.13;3.05;;;;;;;18.51;69.53;63913.84;4912545;29;20433;-77
2022/08/27 01:04:59;;;;;;;8.25;2.92;;;;;;;18.51;70.40;63911.81;4913333;29;20194;-76
2022/08/27 01:07:29;;;;;;;7.20;2.80;;;;;;;18.49;71.10;63914.88;4913565;29;20225;-78
2022/08/27 01:09:58;;;;;;;9.77;3.38;;;;;;;18.50;71.06;63915.91;4913916;29;20262;-78
2022/08/27 01:12:25;;;;;;;3.75;3.28;;;;;;;18.47;71.34;63909.69;4914860;29;20241;-77
2022/08/27 01:14:55;;;;;;;5.28;2.92;;;;;;;18.41;70.46;63906.53;4915178;29;20209;-76
2022/08/27 01:17:23;;;;;;;10.43;3.05;;;;;;;18.37;69.76;63902.88;4913472;29;20274;-78
2022/08/27 01:19:54;;;;;;;5.80;3.40;;;;;;;18.41;70.51;63907.06;4914055;29;20382;-78
2022/08/27 01:22:31;;;;;;;6.32;3.10;;;;;;;18.40;70.11;63906.03;4914962;29;20234;-79
2022/08/27 01:25:04;;;;;;;13.95;3.80;;;;;;;18.35;70.63;63895.63;4912790;29;20201;-77
2022/08/27 01:27:33;;;;;;;7.25;3.47;;;;;;;18.35;72.19;63900.78;4915626;29;20222;-77
2022/08/27 01:30:01;;;;;;;5.75;2.72;;;;;;;18.24;73.55;63889.31;4913945;29;20230;-76
2022/08/27 01:32:30;;;;;;;5.90;2.67;;;;;;;18.23;72.95;63890.88;4912961;29;20412;-77
2022/08/27 01:34:58;;;;;;;10.85;3.20;;;;;;;18.19;73.02;63881.00;4912616;29;20317;-77
2022/08/27 01:37:26;;;;;;;6.55;2.90;;;;;;;18.11;73.46;63875.25;4912839;29;20554;-77
2022/08/27 01:39:54;;;;;;;8.45;3.05;;;;;;;18.01;74.70;63862.78;4913961;29;20244;-78
2022/08/27 01:42:26;;;;;;;4.97;3.03;;;;;;;17.94;75.85;63857.56;4913333;29;20241;-76
2022/08/27 01:44:55;;;;;;;3.92;3.60;;;;;;;17.84;77.58;63844.56;4913132;29;20220;-78
2022/08/27 01:47:24;;;;;;;6.72;3.00;;;;;;;17.79;77.16;63842.44;4913185;29;20289;-76
2022/08/27 01:49:52;;;;;;;9.95;3.53;;;;;;;17.80;77.82;63843.50;4912291;29;20447;-77
2022/08/27 01:52:23;;;;;;;5.60;2.85;;;;;;;17.78;78.00;63838.31;4912195;29;20242;-76
2022/08/27 01:54:51;;;;;;;7.38;3.22;;;;;;;17.68;79.05;63825.84;4913808;29;20225;-77
2022/08/27 01:57:18;;;;;;;7.80;3.17;;;;;;;17.71;79.19;63828.97;4913839;29;20403;-77
2022/08/27 01:59:47;;;;;;;6.57;3.42;;;;;;;17.65;79.18;63822.72;4913168;29;20205;-77
2022/08/27 02:02:16;;;;;;;9.20;2.83;;;;;;;17.51;78.84;63812.75;4913449;29;20258;-78
2022/08/27 02:04:43;;;;;;;4.65;2.53;;;;;;;17.47;80.41;63809.13;4912543;29;20206;-77
2022/08/27 02:07:11;;;;;;;7.00;3.13;;;;;;;17.53;80.86;63814.84;4908600;29;20226;-78
2022/08/27 02:09:38;;;;;;;6.30;3.78;;;;;;;17.54;80.23;63810.72;4894380;29;20230;-77
2022/08/27 02:12:05;;;;;;;9.65;3.45;;;;;;;17.53;81.47;63814.84;4894546;29;20449;-77
2022/08/27 02:14:32;;;;;;;8.27;4.05;;;;;;;17.51;80.72;63812.75;4894258;29;20206;-76
2022/08/27 02:17:01;;;;;;;10.48;3.25;;;;;;;17.46;81.67;63808.09;4893984;29;20366;-76
2022/08/27 02:19:27;;;;;;;9.20;3.63;;;;;;;17.41;82.45;63797.72;4895049;29;20195;-77
2022/08/27 02:21:58;;;;;;;5.07;2.70;;;;;;;17.41;82.21;63797.72;4893181;29;20245;-77
2022/08/27 02:24:26;;;;;;;6.30;3.50;;;;;;;17.39;83.45;63800.25;4893570;29;20190;-77
2022/08/27 02:26:53;;;;;;;5.20;2.95;;;;;;;17.38;83.64;63794.06;4892895;29;20215;-77
2022/08/27 02:29:21;;;;;;;4.57;3.95;;;;;;;17.36;84.01;63792.50;4893711;29;20228;-77
2022/08/27 02:31:49;;;;;;;3.03;2.83;;;;;;;17.36;84.15;63797.63;4893903;29;20527;-77
2022/08/27 02:34:18;;;;;;;5.13;3.97;;;;;;;17.35;nan;63796.59;4896161;29;20273;-79
2022/08/27 02:36:45;;;;;;;3.25;2.95;;;;;;;17.30;84.57;63794.50;4892702;29;20535;-76
2022/08/27 02:39:21;;;;;;;6.32;3.50;;;;;;;17.30;85.05;63789.34;4896404;29;20410;-76
2022/08/27 02:41:48;;;;;;;7.00;3.00;;;;;;;17.29;85.09;63792.94;4894877;29;20427;-76
2022/08/27 02:44:15;;;;;;;5.88;2.90;;;;;;;17.24;85.52;63785.16;4892952;29;20203;-78
2022/08/27 02:46:42;;;;;;;7.55;3.33;;;;;;;17.26;86.28;63784.66;4894163;29;20230;-76
2022/08/27 02:49:09;;;;;;;9.25;4.43;;;;;;;17.20;86.30;63775.84;4892257;29;20207;-78
2022/08/27 02:51:38;;;;;;;9.00;3.97;;;;;;;17.11;87.27;63769.56;4892334;29;20227;-77
2022/08/27 02:54:05;;;;;;;5.28;3.03;;;;;;;17.10;87.85;63768.53;4892474;29;20203;-77
2022/08/27 02:56:32;;;;;;;6.15;2.90;;;;;;;16.99;89.48;63757.09;4892537;29;20271;-77
2022/08/27 02:58:59;;;;;;;8.70;3.67;;;;;;;16.99;89.18;63753.97;4893880;29;20230;-77
2022/08/27 03:01:26;;;;;;;9.32;3.88;;;;;;;16.79;90.42;63736.25;4892534;29;20306;-76
2022/08/27 03:03:54;;;;;;;6.88;3.53;;;;;;;16.75;92.00;63734.69;4893095;29;20428;-77
2022/08/27 03:06:21;;;;;;;4.93;3.83;;;;;;;16.78;91.65;63732.13;4891847;29;20242;-77
2022/08/27 03:08:49;;;;;;;5.32;3.13;;;;;;;16.72;91.16;63731.53;4909936;29;20206;-77
2022/08/27 03:11:16;;;;;;;4.78;3.45;;;;;;;16.73;91.32;63729.50;4911117;29;20462;-77
2022/08/27 03:13:43;;;;;;;5.65;3.22;;;;;;;16.72;91.47;63728.97;4912242;29;20284;-77
2022/08/27 03:16:10;;;;;;;4.80;2.65;;;;;;;16.71;91.45;63733.09;4911603;29;20232;-77
2022/08/27 03:18:36;;;;;;;6.95;3.45;;;;;;;16.71;90.17;63727.94;4910098;29;20391;-76
2022/08/27 03:21:03;;;;;;;3.75;3.45;;;;;;;16.78;90.10;63732.13;4911681;29;20232;-76
2022/08/27 03:23:33;;;;;;;4.40;3.40;;;;;;;16.78;90.84;63739.84;4911208;29;20202;-77
2022/08/27 03:26:04;;;;;;;3.72;3.42;;;;;;;16.77;90.69;63731.09;4911018;29;20232;-77
2022/08/27 03:28:34;;;;;;;8.00;3.78;;;;;;;16.78;90.71;63737.28;4917216;29;20202;-77
2022/08/27 03:31:04;;;;;;;7.65;3.42;;;;;;;16.80;90.81;63739.34;4910118;29;20222;-77
2022/08/27 03:33:33;;;;;;;5.50;3.15;;;;;;;16.76;90.07;63733.13;4909576;29;20511;-77
2022/08/27 03:36:00;;;;;;;4.55;2.70;;;;;;;16.80;89.88;63734.75;4910691;29;20226;-77
2022/08/27 03:38:27;;;;;;;5.68;3.13;;;;;;;16.84;88.87;63741.47;4910900;29;20265;-77
2022/08/27 03:40:54;;;;;;;3.50;3.20;;;;;;;16.85;91.11;63739.41;4911348;29;20546;-76
2022/08/27 03:43:23;;;;;;;6.82;3.40;;;;;;;16.85;91.15;63744.56;4910806;29;20238;-77
2022/08/27 03:45:51;;;;;;;7.65;3.10;;;;;;;16.87;90.34;63749.22;4909795;29;20266;-76
2022/08/27 03:48:19;;;;;;;8.82;3.17;;;;;;;16.88;89.66;63748.19;4910925;29;20202;-78
2022/08/27 03:50:49;;;;;;;7.28;2.90;;;;;;;16.89;89.25;63748.72;4910479;29;20222;-77
2022/08/27 03:53:19;;;;;;;7.60;3.20;;;;;;;16.92;90.35;63752.38;4911264;29;20483;-77
2022/08/27 03:55:46;;;;;;;9.60;3.67;;;;;;;16.93;90.08;63753.41;4910040;29;20491;-77
2022/08/27 03:58:13;;;;;;;7.65;3.08;;;;;;;16.96;89.09;63753.94;4910082;29;20210;-78
2022/08/27 04:04:44;;;;;;;7.15;3.55;;;;;;;16.93;90.47;63753.41;4910430;29;20214;-78
2022/08/27 04:07:13;;;;;;;5.70;3.38;;;;;;;16.92;90.72;63744.66;4906323;29;20238;-77
2022/08/27 04:09:40;;;;;;;6.53;2.97;;;;;;;16.94;90.98;63748.78;4895118;29;20209;-76
2022/08/27 04:12:07;;;;;;;3.63;3.05;;;;;;;17.01;91.61;63763.78;4891798;29;20254;-77
2022/08/27 04:14:34;;;;;;;11.60;3.55;;;;;;;17.03;92.07;63761.22;4893697;29;20203;-77
2022/08/27 04:17:02;;;;;;;8.85;3.65;;;;;;;17.06;92.18;63761.28;4892366;29;20280;-76
2022/08/27 04:19:31;;;;;;;4.00;3.22;;;;;;;17.09;92.44;63766.97;4891718;29;20228;-77
2022/08/27 04:22:00;;;;;;;3.30;2.83;;;;;;;17.15;90.68;63776.28;4892530;29;20243;-77
2022/08/27 04:24:30;;;;;;;8.43;3.47;;;;;;;17.24;90.29;63788.25;4890313;29;20407;-77
2022/08/27 04:26:57;;;;;;;4.15;2.95;;;;;;;17.29;91.31;63790.88;4891672;29;20218;-76
2022/08/27 04:29:24;;;;;;;9.38;3.22;;;;;;;17.36;90.36;63794.56;4890784;29;20202;-77
2022/08/27 04:31:51;;;;;;;7.20;3.75;;;;;;;17.42;90.73;63801.31;4890963;29;20227;-77
2022/08/27 04:34:18;;;;;;;9.73;3.60;;;;;;;17.49;91.40;63811.22;4892347;29;20279;-77
2022/08/27 04:36:46;;;;;;;6.72;4.55;;;;;;;17.57;91.13;63811.81;4892197;29;20452;-76
2022/08/27 04:39:14;;;;;;;7.18;3.72;;;;;;;17.66;90.73;63826.34;4890711;29;20206;-76
2022/08/27 04:41:42;;;;;;;6.30;3.17;;;;;;;17.76;89.51;63833.63;4890610;29;20242;-77
2022/08/27 04:44:11;;;;;;;9.15;3.80;;;;;;;17.90;86.22;63853.91;4892254;29;20229;-77
2022/08/27 04:46:40;;;;;;;5.35;3.47;;;;;;;18.02;89.36;63861.25;4892324;29;20246;-77
2022/08/27 04:49:10;;;;;;;6.10;4.20;;;;;;;18.08;91.11;63870.09;4892096;29;20461;-78
2022/08/27 04:51:37;;;;;;;9.35;3.70;;;;;;;18.10;91.51;63874.22;4891865;29;20444;-77
2022/08/27 04:54:05;;;;;;;5.28;3.13;;;;;;;18.01;89.62;63865.38;4890299;29;20203;-75
2022/08/27 04:56:34;;;;;;;4.05;3.65;;;;;;;18.12;90.74;63873.72;4891063;29;20245;-78
2022/08/27 04:59:04;;;;;;;7.10;4.10;;;;;;;18.04;90.55;63868.50;4891343;29;20207;-77
2022/08/27 05:01:32;;;;;;;8.57;4.25;;;;;;;17.86;94.94;63849.72;4890595;29;20222;-78
2022/08/27 05:03:59;;;;;;;5.53;4.88;;;;;;;17.81;97.58;63844.03;4891263;29;20495;-77
2022/08/27 05:06:27;;;;;;;12.63;4.80;;;;;;;18.01;98.23;63864.84;4891107;29;20275;-77
2022/08/27 05:08:54;;;;;;;11.27;5.80;;;;;;;18.20;96.85;63882.59;4909080;29;20205;-77
2022/08/27 05:11:22;;;;;;;7.53;5.05;;;;;;;18.41;95.80;63904.47;4910559;29;20254;-77
2022/08/27 05:13:50;;;;;;;11.38;5.80;;;;;;;18.55;93.49;63918.03;4910547;29;20242;-77
2022/08/27 05:16:21;;;;;;;9.43;6.15;;;;;;;18.64;92.47;63930.50;4909893;29;20266;-77
2022/08/27 05:18:49;;;;;;;8.05;5.63;;;;;;;18.68;89.88;63937.25;4910335;29;20206;-76
2022/08/27 05:21:18;;;;;;;9.07;7.05;;;;;;;18.57;92.04;63922.69;4909305;29;20313;-78
2022/08/27 05:23:45;;;;;;;6.43;5.20;;;;;;;18.67;93.88;63933.13;4912496;29;20247;-76
2022/08/27 05:26:12;;;;;;;7.38;5.38;;;;;;;18.60;95.05;63923.25;4913457;29;20222;-77
2022/08/27 05:28:39;;;;;;;11.35;5.97;;;;;;;18.57;96.57;63925.28;4913619;29;20217;-77
2022/08/27 05:31:08;;;;;;;8.07;6.30;;;;;;;18.59;98.26;63922.19;4913410;29;20571;-78
2022/08/27 05:33:38;;;;;;;10.27;5.88;;;;;;;18.61;98.92;63922.22;4912940;29;20210;-77
2022/08/27 05:36:06;;;;;;;13.27;6.82;;;;;;;18.90;96.17;63957.59;4914208;29;20241;-77
2022/08/27 05:38:41;;;;;;;10.05;6.20;;;;;;;18.99;94.90;63961.84;4915094;29;20206;-77
2022/08/27 05:41:11;;;;;;;14.55;6.35;;;;;;;19.00;91.95;63964.94;4914912;29;20310;-77
2022/08/27 05:43:40;;;;;;;9.95;6.30;;;;;;;19.16;90.62;63976.44;4919025;29;20237;-78
2022/08/27 05:46:09;;;;;;;13.27;5.95;;;;;;;19.31;88.58;63997.78;4915246;29;20253;-77
2022/08/27 05:48:41;;;;;;;9.55;5.50;;;;;;;19.40;85.56;64012.34;4918663;29;20202;-78
2022/08/27 05:51:28;;;;;;;9.05;6.40;;;;;;;19.38;87.22;64007.16;4920700;29;20232;-77
2022/08/27 05:53:57;;;;;;;17.83;5.95;;;;;;;19.58;86.34;64024.91;4920741;29;20206;-81
2022/08/27 05:56:36;;;;;;;11.55;6.50;;;;;;;19.76;85.93;64051.97;4920064;29;20246;-77
2022/08/27 06:01:51;;;;;;;18.70;6.85;;;;;;;19.79;87.20;64049.94;4917641;29;20238;-78
2022/08/27 06:04:20;;;;;;;12.07;6.00;;;;;;;19.88;85.80;64058.81;4914563;29;20202;-76
2022/08/27 06:06:49;;;;;;;13.65;6.65;;;;;;;20.05;84.56;64074.47;4910323;29;20224;-78
2022/08/27 06:09:19;;;;;;;8.48;6.20;;;;;;;20.19;83.24;64089.09;4893214;29;20207;-77
2022/08/27 06:11:47;;;;;;;12.48;6.30;;;;;;;20.26;82.96;64095.88;4892109;29;20229;-77
2022/08/27 06:14:14;;;;;;;9.70;6.00;;;;;;;20.02;82.82;64073.41;4895662;29;20213;-77
2022/08/27 06:16:41;;;;;;;7.50;5.50;;;;;;;19.83;85.29;64051.00;4893102;29;20250;-78
2022/08/27 06:19:10;;;;;;;10.75;5.93;;;;;;;19.83;84.03;64054.09;4893689;29;20245;-76
2022/08/27 06:21:39;;;;;;;11.18;4.82;;;;;;;19.91;82.25;64057.28;4894529;29;20257;-78
2022/08/27 06:24:07;;;;;;;16.20;5.50;;;;;;;20.06;82.53;64074.97;4893213;29;20454;-78
2022/08/27 06:26:35;;;;;;;9.32;5.18;;;;;;;20.20;82.06;64089.63;4892841;29;20222;-77
2022/08/27 06:29:03;;;;;;;11.35;5.20;;;;;;;20.17;81.76;64089.06;4892828;29;20233;-78
2022/08/27 06:31:30;;;;;;;9.35;6.25;;;;;;;20.24;81.38;64093.78;4892955;29;20223;-77
2022/08/27 06:33:59;;;;;;;15.90;5.60;;;;;;;20.44;80.80;64117.78;4895283;29;20234;-77
2022/08/27 06:36:28;;;;;;;11.18;5.30;;;;;;;20.56;81.05;64130.31;4891246;29;20243;-78
2022/08/27 06:38:58;;;;;;;10.40;6.05;;;;;;;20.41;82.54;64111.53;4893014;29;20202;-76
2022/08/27 06:41:27;;;;;;;15.90;6.93;;;;;;;20.62;79.85;64133.47;4892679;29;20222;-78
2022/08/27 06:43:56;;;;;;;14.43;5.68;;;;;;;20.60;79.77;64136.53;4894772;29;20291;-77
2022/08/27 06:46:25;;;;;;;13.32;5.40;;;;;;;20.79;78.37;64153.78;4893173;29;20247;-78
2022/08/27 06:48:53;;;;;;;14.20;5.45;;;;;;;21.05;76.67;64175.78;4893982;29;20251;-78
2022/08/27 06:51:23;;;;;;;9.52;5.63;;;;;;;21.16;75.38;64187.25;4893232;29;20227;-78
2022/08/27 06:53:51;;;;;;;13.48;6.55;;;;;;;21.23;72.86;64194.56;4893664;29;20199;-77
2022/08/27 06:56:23;;;;;;;14.50;5.40;;;;;;;21.13;74.49;64186.72;4892887;29;20226;-79
2022/08/27 06:58:52;;;;;;;10.20;5.38;;;;;;;21.40;74.28;64212.31;4894627;29;20285;-78
2022/08/27 07:01:21;;;;;;;8.23;5.45;;;;;;;21.40;75.53;64222.16;4893014;29;20566;-77
2022/08/27 07:03:49;;;;;;;7.75;5.18;;;;;;;21.47;73.73;64224.28;4892967;29;20258;-78
2022/08/27 07:06:17;;;;;;;9.90;6.03;;;;;;;21.48;73.70;64220.16;4892508;29;20263;-77
2022/08/27 07:08:45;;;;;;;7.72;5.07;;;;;;;21.62;72.86;64240.47;4892073;29;20203;-77
2022/08/27 07:11:14;;;;;;;10.05;5.53;;;;;;;21.61;71.96;64239.44;4894277;29;20222;-77
2022/08/27 07:13:45;;;;;;;12.65;5.03;;;;;;;21.84;71.20;64262.44;4893083;29;20279;-77
2022/08/27 07:16:15;;;;;;;7.65;5.00;;;;;;;21.98;72.53;64271.91;4892683;29;20222;-77
2022/08/27 07:18:42;;;;;;;12.35;5.13;;;;;;;22.29;70.93;64310.00;4893189;29;20206;-76
2022/08/27 07:21:09;;;;;;;9.73;5.47;;;;;;;22.33;68.21;64309.00;4896303;29;20291;-77
2022/08/27 07:23:38;;;;;;;5.80;4.20;;;;;;;22.44;67.19;64328.28;4897987;29;20301;-78
2022/08/27 07:26:11;;;;;;;8.68;4.40;;;;;;;22.48;65.03;64326.75;4894802;29;20223;-78
2022/08/27 07:28:40;;;;;;;9.75;5.18;;;;;;;22.48;66.72;64329.88;4897282;29;20484;-77
2022/08/27 07:31:11;;;;;;;7.82;4.50;;;;;;;22.59;64.65;64341.38;4896408;29;20414;-78
2022/08/27 07:33:40;;;;;;;9.75;5.05;;;;;;;22.55;64.13;64334.09;4892987;29;20210;-78
2022/08/27 07:36:07;;;;;;;7.20;4.57;;;;;;;22.75;63.03;64358.13;4892300;29;20223;-78
2022/08/27 07:38:35;;;;;;;7.88;4.70;;;;;;;22.86;62.21;64361.31;4895449;29;20263;-77
2022/08/27 07:41:04;;;;;;;9.73;3.33;;;;;;;23.01;62.15;64379.59;4893499;29;20238;-77
2022/08/27 07:46:17;;;;;;;8.07;4.15;;;;;;;23.35;60.38;64415.16;4892502;29;20259;-76
2022/08/27 07:48:44;;;;;;;8.63;4.00;;;;;;;23.48;61.11;64431.38;4891712;29;20217;-77
2022/08/27 07:51:15;;;;;;;6.55;4.22;;;;;;;23.63;60.48;64447.06;4892544;29;20222;-78
2022/08/27 07:53:43;;;;;;;5.00;4.07;;;;;;;23.70;58.27;64457.00;4894268;29;20207;-77
2022/08/27 07:56:10;;;;;;;7.63;4.28;;;;;;;23.89;56.35;64471.69;4891795;29;20557;-77
2022/08/27 07:58:38;;;;;;;7.50;3.95;;;;;;;23.75;54.76;64461.69;4892272;29;20539;-77
2022/08/27 08:01:05;;;;;;;7.60;4.40;;;;;;;23.63;56.27;64449.66;4892350;29;20239;-76
2022/08/27 08:03:33;;;;;;;6.47;5.07;;;;;;;23.74;56.36;64458.59;4892197;29;20234;-77
2022/08/27 08:06:04;;;;;;;15.98;4.60;;;;;;;24.02;56.93;64487.38;4891265;29;20223;-79
2022/08/27 08:08:33;;;;;;;5.28;4.05;;;;;;;24.02;55.51;64486.84;4892952;29;20226;-77
2022/08/27 08:11:02;;;;;;;8.25;3.83;;;;;;;24.05;54.48;64490.00;4891410;29;20289;-77
2022/08/27 08:13:30;;;;;;;5.20;3.60;;;;;;;24.02;54.42;64490.50;4893385;29;20203;-77
2022/08/27 08:15:58;;;;;;;5.15;3.92;;;;;;;24.38;52.00;64527.66;4891007;29;20282;-76
2022/08/27 08:18:26;;;;;;;12.95;4.65;;;;;;;24.60;50.83;64548.09;4892111;29;20206;-77
2022/08/27 08:20:59;;;;;;;9.10;3.97;;;;;;;24.63;51.11;64551.22;4891603;29;20231;-78
2022/08/27 08:23:27;;;;;;;9.70;3.88;;;;;;;24.71;51.78;64567.44;4892546;29;20256;-77
2022/08/27 08:25:54;;;;;;;8.25;4.22;;;;;;;24.76;51.99;64570.09;4892329;29;20468;-77
2022/08/27 08:28:21;;;;;;;10.48;4.55;;;;;;;24.93;51.58;64585.28;4892349;29;20238;-77
2022/08/27 08:30:48;;;;;;;7.50;3.88;;;;;;;25.08;51.26;64593.16;4892224;29;20246;-77
2022/08/27 08:33:15;;;;;;;12.50;4.43;;;;;;;25.39;50.40;64630.34;4892100;29;20230;-78
2022/08/27 08:35:42;;;;;;;8.70;4.18;;;;;;;25.57;50.90;64649.22;4891795;29;20226;-77
2022/08/27 08:38:11;;;;;;;8.73;3.90;;;;;;;25.66;49.82;64660.75;4892094;29;20216;-78
2022/08/27 08:40:41;;;;;;;6.13;4.00;;;;;;;25.83;49.79;64675.94;4892100;29;20241;-78
2022/08/27 08:43:21;;;;;;;14.18;3.78;;;;;;;25.92;48.31;64683.28;4893280;29;20561;-77
2022/08/27 08:45:49;;;;;;;3.92;3.47;;;;;;;26.03;47.96;64697.44;4892249;29;20262;-77
2022/08/27 08:48:20;;;;;;;9.48;3.83;;;;;;;26.22;48.95;64719.44;4892385;29;20209;-78
2022/08/27 08:50:55;;;;;;;9.80;4.00;;;;;;;26.29;47.39;64726.25;4890847;29;20291;-77
2022/08/27 08:53:37;;;;;;;13.75;4.45;;;;;;;26.45;45.54;64743.03;4894011;29;20206;-77
2022/08/27 08:56:09;;;;;;;9.18;4.25;;;;;;;26.61;45.94;64759.81;4893327;29;20226;-77
2022/08/27 08:58:45;;;;;;;10.63;3.90;;;;;;;26.56;44.67;64755.09;4891744;29;20207;-78
2022/08/27 09:01:15;;;;;;;10.50;3.78;;;;;;;26.49;43.38;64747.75;4893879;29;20234;-77
2022/08/27 09:03:51;;;;;;;14.52;4.00;;;;;;;26.67;44.25;64766.13;4896550;29;20241;-77
2022/08/27 09:06:22;;;;;;;9.82;3.28;;;;;;;26.84;42.00;64778.72;4895313;29;20245;-77
2022/08/27 09:08:51;;;;;;;4.85;3.30;;;;;;;26.86;43.05;64786.59;4914659;29;20206;-77
2022/08/27 09:11:27;;;;;;;8.93;3.60;;;;;;;26.99;42.91;64799.69;4915824;29;20270;-78
2022/08/27 09:13:58;;;;;;;3.80;3.50;;;;;;;26.95;42.02;64792.88;4913539;29;20205;-77
2022/08/27 09:16:25;;;;;;;12.93;3.95;;;;;;;26.82;42.08;64782.38;4913815;29;20218;-77
2022/08/27 09:18:52;;;;;;;6.28;3.67;;;;;;;27.03;42.37;64803.88;4913427;29;20210;-78
2022/08/27 09:21:29;;;;;;;7.47;3.65;;;;;;;27.23;42.92;64822.78;4912486;29;20253;-76
2022/08/27 09:24:04;;;;;;;6.30;3.13;;;;;;;27.45;42.72;64844.84;4915064;29;20233;-77
2022/08/27 09:26:33;;;;;;;6.85;3.75;;;;;;;27.63;42.67;64869.47;4913474;29;20245;-77
2022/08/27 09:29:15;;;;;;;8.27;3.78;;;;;;;27.85;42.46;64889.44;4913066;29;20202;-78
2022/08/27 09:31:43;;;;;;;7.18;3.15;;;;;;;27.59;40.92;64859.53;4913042;29;20222;-77
2022/08/27 09:34:11;;;;;;;9.27;3.90;;;;;;;27.13;40.68;64814.91;4912095;29;20270;-77
2022/08/27 09:36:51;;;;;;;4.30;3.20;;;;;;;27.15;39.52;64817.00;4913855;29;20222;-77
2022/08/27 09:39:20;;;;;;;8.93;4.10;;;;;;;27.24;38.56;64823.84;4914001;29;20390;-77
2022/08/27 09:41:48;;;;;;;4.82;3.20;;;;;;;27.19;39.54;64823.81;4913350;29;20222;-77
2022/08/27 09:44:19;;;;;;;14.57;3.65;;;;;;;27.35;38.74;64836.97;4912998;29;20260;-77
2022/08/27 09:46:54;;;;;;;12.25;3.38;;;;;;;27.30;39.39;64827.53;4913557;29;20315;-78
2022/08/27 09:49:22;;;;;;;5.70;3.03;;;;;;;27.16;39.05;64815.44;4913450;29;20202;-77
2022/08/27 09:51:50;;;;;;;7.40;3.50;;;;;;;27.14;38.45;64818.56;4912293;29;20240;-78
2022/08/27 09:54:38;;;;;;;11.50;3.90;;;;;;;27.37;38.06;64831.72;4913534;29;20202;-77
2022/08/27 09:57:07;;;;;;;11.52;3.85;;;;;;;27.39;37.91;64838.53;4913499;29;20251;-78
2022/08/27 09:59:36;;;;;;;10.70;2.75;;;;;;;27.25;36.58;64829.56;4912967;29;20229;-76
2022/08/27 10:02:06;;;;;;;5.20;3.28;;;;;;;27.55;35.84;64855.84;4914716;29;20229;-78
2022/08/27 10:04:37;;;;;;;7.18;3.20;;;;;;;27.83;36.55;64885.25;4914236;29;20661;-78
2022/08/27 10:07:19;;;;;;;4.32;3.25;;;;;;;27.94;37.47;64898.91;4908526;29;20249;-78
2022/08/27 10:09:53;;;;;;;7.25;3.83;;;;;;;28.08;36.82;64908.88;4892901;29;20423;-77
2022/08/27 10:12:25;;;;;;;11.75;3.10;;;;;;;28.08;37.00;64913.59;4894647;29;20503;-78
2022/08/27 10:14:57;;;;;;;6.55;3.35;;;;;;;28.03;36.46;64905.72;4894364;29;20475;-78
2022/08/27 10:17:32;;;;;;;4.05;3.08;;;;;;;28.08;36.88;64913.59;4893659;29;20229;-77
2022/08/27 10:20:05;;;;;;;12.32;3.45;;;;;;;28.35;38.10;64937.22;4893507;29;20198;-79
2022/08/27 10:22:45;;;;;;;10.68;3.50;;;;;;;28.56;35.98;64960.88;4893196;29;20252;-78
2022/08/27 10:25:25;;;;;;;3.53;3.08;;;;;;;28.60;35.99;64970.84;4893345;29;20222;-77
2022/08/27 10:28:03;;;;;;;6.65;3.08;;;;;;;28.91;34.62;65000.78;4895321;29;20211;-78
2022/08/27 10:30:47;;;;;;;6.68;2.75;;;;;;;29.00;33.64;65010.22;4893442;29;20191;-77
2022/08/27 10:33:23;;;;;;;6.50;3.25;;;;;;;28.83;32.11;64997.63;4892659;29;20285;-78
2022/08/27 10:36:01;;;;;;;12.70;2.85;;;;;;;28.85;33.04;64991.84;4892880;29;20227;-78
2022/08/27 10:38:37;;;;;;;5.82;3.17;;;;;;;28.99;32.98;65006.03;4892956;29;20417;-77
2022/08/27 10:41:12;;;;;;;6.30;3.65;;;;;;;29.02;32.83;65007.09;4894225;29;20230;-77
2022/08/27 10:44:25;;;;;;;9.85;3.08;;;;;;;28.72;32.89;64985.53;4893780;29;20222;-77
2022/08/27 10:47:05;;;;;;;10.55;3.53;;;;;;;28.22;33.20;64928.28;4892216;29;20222;-77
2022/08/27 10:49:39;;;;;;;16.90;5.57;;;;;;;28.27;33.77;64933.53;4892434;29;20202;-77
2022/08/27 10:52:17;;;;;;;11.65;4.65;;;;;;;28.53;34.18;64958.25;4892666;29;20226;-76
2022/08/27 10:54:51;;;;;;;17.95;4.22;;;;;;;28.60;34.12;64967.69;4893012;29;20235;-77
2022/08/27 10:57:27;;;;;;;7.78;4.60;;;;;;;28.57;33.55;64962.44;4893060;29;20223;-79
2022/08/27 11:00:02;;;;;;;17.77;4.35;;;;;;;28.52;33.52;64959.81;4892918;29;20198;-78
2022/08/27 11:02:35;;;;;;;9.05;3.88;;;;;;;28.48;34.24;64958.22;4891926;29;20274;-76
2022/08/27 11:05:06;;;;;;;8.98;3.65;;;;;;;28.56;33.77;64966.63;4892538;29;20306;-78
2022/08/27 11:07:38;;;;;;;13.88;4.30;;;;;;;28.76;33.24;64985.03;4901055;29;20281;-78
2022/08/27 11:10:11;;;;;;;6.13;3.40;;;;;;;28.96;33.40;65002.88;4911887;29;20202;-77
2022/08/27 11:12:43;;;;;;;9.38;3.50;;;;;;;28.98;32.83;65008.13;4912365;29;20540;-77
2022/08/27 11:15:15;;;;;;;7.35;3.25;;;;;;;28.94;32.16;65006.03;4911277;29;20475;-76
2022/08/27 11:17:49;;;;;;;5.85;3.35;;;;;;;29.17;33.44;65028.09;4912522;29;20274;-77
2022/08/27 11:20:22;;;;;;;7.20;4.53;;;;;;;29.38;33.39;65047.03;4912802;29;20198;-78
2022/08/27 11:22:54;;;;;;;9.75;3.95;;;;;;;29.42;31.76;65051.75;4911036;29;20196;-79
2022/08/27 11:25:34;;;;;;;6.07;4.07;;;;;;;29.70;31.88;65082.78;4913471;29;20538;-79
2022/08/27 11:28:05;;;;;;;7.50;3.65;;;;;;;29.88;31.88;65096.97;4912123;29;20570;-78
2022/08/27 11:30:52;;;;;;;11.02;4.50;;;;;;;29.97;34.08;65111.16;4910817;29;20198;-78
2022/08/27 11:33:27;;;;;;;5.50;3.78;;;;;;;29.97;32.69;65105.91;4911183;29;20210;-77
2022/08/27 11:36:27;;;;;;;10.70;4.13;;;;;;;30.07;30.61;65119.56;4912914;29;20297;-77
2022/08/27 11:38:58;;;;;;;8.73;4.07;;;;;;;30.04;31.19;65111.16;4908442;29;20209;-77
2022/08/27 11:41:51;;;;;;;9.95;4.00;;;;;;;29.93;31.11;65102.22;4910927;29;20270;-77
2022/08/27 11:44:23;;;;;;;5.82;3.72;;;;;;;29.74;32.24;65090.13;4910845;29;20233;-79
2022/08/27 11:46:55;;;;;;;5.10;4.68;;;;;;;29.80;33.71;65093.28;4911204;29;20233;-78
2022/08/27 11:49:26;;;;;;;10.68;4.32;;;;;;;29.91;29.86;65105.38;4911625;29;20206;-78
2022/08/27 11:51:58;;;;;;;4.18;3.75;;;;;;;29.97;29.81;65111.69;4911402;29;20242;-77
2022/08/27 11:54:28;;;;;;;8.38;3.92;;;;;;;29.87;30.40;65095.91;4912019;29;20202;-78